Time;durP1;ratioP1;P1;durP2;ratioP2;P2;SDS_P1;SDS_P2;PMS_P1;PMS_P2;Temp;Humidity;BMP_temperature;BMP_pressure;BME280_temperature;BME280_humidity;BME280_pressure;Samples;Min_cycle;Max_cycle;Signal;HPM_P1;HPM_P2
2021/06/26 00:00:11;;;;;;;11.78;6.08;;;;;;;25.80;100.00;98690.36;1828237;78;20920;-72
2021/06/26 00:02:40;;;;;;;13.18;5.60;;;;;;;25.79;100.00;98694.52;1828652;78;21001;-73
2021/06/26 00:05:11;;;;;;;13.78;5.80;;;;;;;25.75;100.00;98704.70;1828501;78;21150;-75
2021/06/26 00:07:40;;;;;;;17.73;5.72;;;;;;;25.70;100.00;98710.45;1798812;78;20934;-74
2021/06/26 00:10:12;;;;;;;13.68;5.25;;;;;;;25.69;100.00;98711.91;1828612;78;20907;-75
2021/06/26 00:12:41;;;;;;;9.08;5.25;;;;;;;25.69;100.00;98718.67;1828490;78;20878;-74
2021/06/26 00:15:13;;;;;;;9.55;5.87;;;;;;;25.67;100.00;98718.78;1828523;78;20906;-75
2021/06/26 00:17:41;;;;;;;12.20;5.60;;;;;;;25.67;100.00;98711.16;1828943;78;21125;-73
2021/06/26 00:20:12;;;;;;;10.98;5.03;;;;;;;25.65;100.00;98712.60;1828473;78;20910;-73
2021/06/26 00:22:40;;;;;;;13.68;5.65;;;;;;;25.61;100.00;98704.84;1828787;78;20832;-74
2021/06/26 00:25:11;;;;;;;11.05;5.15;;;;;;;25.57;100.00;98701.99;1828448;78;20915;-74
2021/06/26 00:27:39;;;;;;;12.13;5.58;;;;;;;25.53;100.00;98700.47;1828726;78;20871;-74
2021/06/26 00:30:10;;;;;;;9.48;4.97;;;;;;;25.50;100.00;98700.20;1828654;78;21548;-74
2021/06/26 00:32:40;;;;;;;17.50;6.07;;;;;;;25.46;100.00;98697.36;1829100;78;20931;-74
2021/06/26 00:35:12;;;;;;;15.95;5.28;;;;;;;25.36;100.00;98699.88;1828409;78;20922;-74
2021/06/26 00:37:45;;;;;;;13.05;5.80;;;;;;;25.31;100.00;98711.99;1828767;78;20878;-75
2021/06/26 00:40:14;;;;;;;9.50;4.53;;;;;;;25.26;100.00;98708.28;1828863;78;20922;-74
2021/06/26 00:42:44;;;;;;;12.80;4.97;;;;;;;25.23;100.00;98708.50;1828888;78;21123;-75
2021/06/26 00:45:16;;;;;;;11.18;5.28;;;;;;;25.20;100.00;98710.56;1828443;78;20909;-74
2021/06/26 00:47:46;;;;;;;11.73;5.92;;;;;;;25.15;100.00;98705.50;1828927;78;20958;-74
2021/06/26 00:50:20;;;;;;;16.70;5.17;;;;;;;25.10;100.00;98696.88;1828592;78;20882;-73
2021/06/26 00:52:53;;;;;;;14.13;5.78;;;;;;;25.06;100.00;98691.30;1822648;78;20888;-74
2021/06/26 00:55:26;;;;;;;8.60;4.75;;;;;;;25.02;100.00;98685.74;1818188;78;22097;-74
2021/06/26 00:57:58;;;;;;;10.60;5.20;;;;;;;24.99;100.00;98684.62;1818020;78;20904;-74
2021/06/26 01:00:27;;;;;;;13.28;5.55;;;;;;;24.99;100.00;98689.52;1818381;78;20884;-74
2021/06/26 01:02:59;;;;;;;15.78;5.33;;;;;;;24.96;100.00;98692.90;1818473;79;20884;-70
2021/06/26 01:05:31;;;;;;;13.28;5.40;;;;;;;24.94;100.00;98688.97;1818160;78;20960;-71
2021/06/26 01:08:01;;;;;;;15.18;5.72;;;;;;;24.90;100.00;98686.11;1818172;78;21500;-71
2021/06/26 01:10:39;;;;;;;13.98;4.50;;;;;;;24.93;100.00;98689.94;1818144;78;20916;-74
2021/06/26 01:13:07;;;;;;;12.65;4.90;;;;;;;24.94;100.00;98685.41;1818159;78;21055;-74
2021/06/26 01:15:36;;;;;;;18.48;5.60;;;;;;;24.93;100.00;98685.89;1818199;78;21002;-73
2021/06/26 01:18:09;;;;;;;11.45;4.85;;;;;;;24.91;100.00;98677.53;1818295;79;21043;-74
2021/06/26 01:20:39;;;;;;;11.28;4.95;;;;;;;24.91;100.00;98671.65;1818174;79;22057;-74
2021/06/26 01:23:14;;;;;;;;;;;;;;;24.93;100.00;98667.00;1820781;78;20869;-73
2021/06/26 01:25:46;;;;;;;12.18;4.85;;;;;;;24.94;100.00;98666.03;1818204;79;20078;-74
2021/06/26 01:28:18;;;;;;;7.92;4.97;;;;;;;24.92;100.00;98656.32;1818467;78;20916;-73
2021/06/26 01:30:48;;;;;;;14.60;5.28;;;;;;;24.90;100.00;98644.78;1818173;79;20988;-75
2021/06/26 01:33:19;;;;;;;14.47;4.50;;;;;;;24.86;100.00;98637.39;1818156;79;22369;-75
2021/06/26 01:35:48;;;;;;;11.85;4.87;;;;;;;24.83;100.00;98636.27;1818136;78;20917;-73
2021/06/26 01:38:19;;;;;;;8.53;4.87;;;;;;;24.78;100.00;98628.51;1818258;78;21447;-74
2021/06/26 01:40:47;;;;;;;10.28;5.20;;;;;;;24.75;100.00;98627.38;1818520;79;20927;-72
2021/06/26 01:43:15;;;;;;;12.28;4.60;;;;;;;24.71;100.00;98616.44;1818269;78;20884;-71
2021/06/26 01:45:45;;;;;;;13.85;4.50;;;;;;;24.70;100.00;98617.90;1818136;78;21085;-71
2021/06/26 01:48:15;;;;;;;18.32;4.72;;;;;;;24.69;100.00;98625.12;1818152;78;20874;-72
2021/06/26 01:50:44;;;;;;;10.85;4.70;;;;;;;24.66;100.00;98621.30;1818099;78;21438;-71
2021/06/26 01:53:20;;;;;;;17.27;4.90;;;;;;;24.65;100.00;98624.97;1824319;78;20958;-71
2021/06/26 01:55:51;;;;;;;9.23;4.53;;;;;;;24.62;100.00;98617.59;1828648;78;20899;-70
2021/06/26 01:58:27;;;;;;;11.03;4.85;;;;;;;24.59;100.00;98619.13;1828313;78;20831;-72
2021/06/26 02:00:57;;;;;;;10.32;3.83;;;;;;;24.56;100.00;98617.52;1828684;78;21326;-70
2021/06/26 02:03:27;;;;;;;13.15;4.42;;;;;;;24.55;100.00;98609.53;1828436;78;20902;-72
2021/06/26 02:05:57;;;;;;;8.28;4.22;;;;;;;24.52;100.00;98599.83;1828811;78;20906;-73
2021/06/26 02:08:27;;;;;;;10.32;3.95;;;;;;;24.48;100.00;98598.33;1828531;78;20875;-72
2021/06/26 02:10:56;;;;;;;16.07;4.83;;;;;;;24.42;100.00;98595.58;1828579;78;21800;-74
2021/06/26 02:13:27;;;;;;;7.90;4.12;;;;;;;24.39;100.00;98588.20;1828444;78;20866;-73
2021/06/26 02:16:01;;;;;;;8.10;3.75;;;;;;;24.35;100.00;98592.95;1828497;78;20985;-73
2021/06/26 02:18:30;;;;;;;10.70;3.87;;;;;;;24.32;100.00;98598.56;1828528;78;21432;-72
2021/06/26 02:21:02;;;;;;;10.95;3.72;;;;;;;24.31;100.00;98600.88;1828589;78;20934;-74
2021/06/26 02:23:31;;;;;;;11.80;4.00;;;;;;;24.32;100.00;98599.91;1828588;78;26645;-73
2021/06/26 02:26:01;;;;;;;10.32;3.55;;;;;;;24.30;100.00;98596.94;1785090;78;20977;-73
2021/06/26 02:28:29;;;;;;;11.03;3.90;;;;;;;24.30;100.00;98604.55;1828364;78;20907;-73
2021/06/26 02:30:57;;;;;;;12.15;4.00;;;;;;;24.29;100.00;98600.61;1828269;78;20998;-72
2021/06/26 02:33:28;;;;;;;13.22;3.60;;;;;;;24.29;100.00;98598.78;1828368;78;20926;-73
2021/06/26 02:35:57;;;;;;;9.33;3.67;;;;;;;24.30;100.00;98599.64;1828688;78;21177;-73
2021/06/26 02:38:27;;;;;;;8.58;3.67;;;;;;;24.32;100.00;98606.64;1828296;78;20905;-74
2021/06/26 02:40:56;;;;;;;13.98;4.47;;;;;;;24.31;100.00;98601.36;1828537;78;20875;-73
2021/06/26 02:43:32;;;;;;;13.45;3.87;;;;;;;24.31;100.00;98603.57;1828351;78;20910;-73
2021/06/26 02:46:03;;;;;;;8.83;3.40;;;;;;;24.31;100.00;98606.27;1828372;78;20907;-74
2021/06/26 02:48:33;;;;;;;6.07;3.17;;;;;;;24.34;100.00;98622.70;1828609;77;23054;-73
2021/06/26 02:51:02;;;;;;;9.18;3.22;;;;;;;24.36;100.00;98630.20;1828350;78;20899;-73
2021/06/26 02:53:31;;;;;;;9.68;3.77;;;;;;;24.37;100.00;98636.83;1826779;78;21002;-72
2021/06/26 02:56:01;;;;;;;15.23;4.92;;;;;;;24.39;100.00;98635.38;1826072;78;21389;-73
2021/06/26 02:58:32;;;;;;;11.48;3.98;;;;;;;24.38;100.00;98637.21;1826115;78;21464;-73
2021/06/26 03:01:01;;;;;;;11.53;4.12;;;;;;;24.37;100.00;98638.18;1826301;78;21293;-73
2021/06/26 03:03:30;;;;;;;9.38;3.47;;;;;;;24.38;100.00;98633.17;1825953;78;20957;-74
2021/06/26 03:06:02;;;;;;;11.22;3.45;;;;;;;24.39;100.00;98629.98;1801061;78;20879;-73
2021/06/26 03:08:31;;;;;;;10.60;3.52;;;;;;;24.39;100.00;98633.55;1825985;78;20875;-73
2021/06/26 03:11:02;;;;;;;12.37;3.50;;;;;;;24.40;100.00;98632.58;1826012;78;20974;-73
2021/06/26 03:13:32;;;;;;;11.73;3.55;;;;;;;24.39;100.00;98630.84;1826188;78;20960;-74
2021/06/26 03:16:00;;;;;;;12.82;3.55;;;;;;;24.39;100.00;98633.55;1825863;78;21382;-74
2021/06/26 03:18:30;;;;;;;20.85;3.70;;;;;;;24.40;100.00;98633.92;1825697;78;21397;-73
2021/06/26 03:20:58;;;;;;;9.38;4.45;;;;;;;24.39;100.00;98633.55;1825898;78;20914;-72
2021/06/26 03:23:30;;;;;;;7.65;2.92;;;;;;;24.40;100.00;98634.41;1825823;78;20911;-73
2021/06/26 03:25:58;;;;;;;11.48;3.45;;;;;;;24.43;100.00;98622.05;1826002;78;21137;-73
2021/06/26 03:28:26;;;;;;;10.23;3.40;;;;;;;24.47;100.00;98622.22;1825663;78;20910;-75
2021/06/26 03:30:54;;;;;;;8.83;4.00;;;;;;;24.48;100.00;98620.76;1826013;78;20891;-73
2021/06/26 03:33:23;;;;;;;11.33;3.60;;;;;;;24.52;100.00;98617.84;1825942;78;20973;-74
2021/06/26 03:35:53;;;;;;;15.75;3.58;;;;;;;24.54;100.00;98622.64;1825853;78;20965;-74
2021/06/26 03:38:24;;;;;;;14.10;3.42;;;;;;;24.57;100.00;98620.58;1825942;78;21074;-74
2021/06/26 03:40:51;;;;;;;9.40;3.25;;;;;;;24.60;100.00;98619.53;1825506;78;21310;-73
2021/06/26 03:43:20;;;;;;;11.28;3.52;;;;;;;24.63;100.00;98620.17;1825833;78;20879;-73
2021/06/26 03:45:49;;;;;;;12.70;3.60;;;;;;;24.68;100.00;98627.45;1825861;78;20953;-74
2021/06/26 03:48:17;;;;;;;9.03;3.27;;;;;;;24.72;100.00;98622.70;1826039;78;20962;-73
2021/06/26 03:50:48;;;;;;;11.90;3.98;;;;;;;24.74;100.00;98624.31;1825574;78;21390;-73
2021/06/26 03:53:17;;;;;;;14.35;3.67;;;;;;;24.77;100.00;98627.27;1822674;78;21383;-73
2021/06/26 03:55:51;;;;;;;10.65;3.37;;;;;;;24.77;100.00;98625.44;1817623;78;20900;-72
2021/06/26 03:58:15;;;;;;;7.92;3.30;;;;;;;24.80;100.00;98632.45;1816966;78;20928;-73
2021/06/26 04:00:42;;;;;;;12.58;3.75;;;;;;;24.82;100.00;98628.29;1817752;79;20900;-73
2021/06/26 04:03:12;;;;;;;17.37;3.60;;;;;;;24.86;100.00;98629.30;1817444;78;21155;-73
2021/06/26 04:05:46;;;;;;;12.60;3.40;;;;;;;24.90;100.00;98636.20;1817611;78;21165;-72
2021/06/26 04:08:16;;;;;;;11.28;3.27;;;;;;;24.93;100.00;98629.72;1814194;78;21533;-72
2021/06/26 04:10:45;;;;;;;14.50;3.72;;;;;;;24.96;100.00;98640.28;1817558;78;20877;-74
2021/06/26 04:13:13;;;;;;;11.48;3.83;;;;;;;24.97;100.00;98640.17;1817846;79;20911;-74
2021/06/26 04:15:43;;;;;;;13.43;4.30;;;;;;;24.99;100.00;98634.21;1817446;79;20974;-72
2021/06/26 04:18:11;;;;;;;9.73;4.53;;;;;;;25.04;100.00;98635.22;1817115;78;20971;-73
2021/06/26 04:20:39;;;;;;;12.40;3.77;;;;;;;25.08;100.00;98627.31;1817572;79;20988;-74
2021/06/26 04:23:08;;;;;;;11.88;3.55;;;;;;;25.12;100.00;98621.20;1816854;78;20937;-74
2021/06/26 04:25:38;;;;;;;11.85;4.05;;;;;;;25.17;100.00;98620.37;1817614;78;20876;-73
2021/06/26 04:28:11;;;;;;;11.08;3.67;;;;;;;25.22;100.00;98620.89;1816321;78;21375;-70
2021/06/26 04:30:40;;;;;;;16.23;4.15;;;;;;;25.26;100.00;98623.73;1816457;78;21527;-71
2021/06/26 04:33:09;;;;;;;14.07;4.15;;;;;;;25.32;100.00;98620.09;1816485;78;20893;-74
2021/06/26 04:35:38;;;;;;;15.60;4.75;;;;;;;25.37;100.00;98616.55;1816592;78;20940;-71
2021/06/26 04:38:06;;;;;;;16.27;4.75;;;;;;;25.42;100.00;98618.42;1816589;78;20933;-72
2021/06/26 04:40:35;;;;;;;17.45;4.03;;;;;;;25.48;100.00;98623.84;1816285;78;21151;-72
2021/06/26 04:43:06;;;;;;;9.95;3.92;;;;;;;25.54;100.00;98630.17;1816316;79;20841;-71
2021/06/26 04:45:36;;;;;;;13.63;4.17;;;;;;;25.60;100.00;98633.75;1817063;78;21379;-71
2021/06/26 04:48:04;;;;;;;13.25;4.40;;;;;;;25.69;100.00;98637.14;1816150;78;20880;-66
2021/06/26 04:50:33;;;;;;;15.03;3.90;;;;;;;25.80;100.00;98634.11;1816757;79;20896;-74
2021/06/26 04:53:03;;;;;;;9.23;4.08;;;;;;;25.88;100.00;98629.84;1792999;77;21088;-74
2021/06/26 04:55:32;;;;;;;16.40;4.20;;;;;;;25.98;100.00;98628.15;1828187;78;20954;-74
2021/06/26 04:58:03;;;;;;;11.70;4.15;;;;;;;26.07;100.00;98621.20;1828089;78;20891;-73
2021/06/26 05:00:32;;;;;;;13.32;4.25;;;;;;;26.16;100.00;98627.23;1827655;78;21536;-69
2021/06/26 05:03:02;;;;;;;13.53;4.10;;;;;;;26.25;100.00;98619.75;1826653;78;21033;-69
2021/06/26 05:05:32;;;;;;;;;;;;;;;26.34;100.00;98620.91;1799277;78;21599;-68
2021/06/26 05:08:01;;;;;;;12.35;4.55;;;;;;;26.43;100.00;98616.12;1825792;78;20085;-67
2021/06/26 05:10:29;;;;;;;17.37;3.72;;;;;;;26.53;100.00;98611.73;1825715;78;21202;-69
2021/06/26 05:12:59;;;;;;;17.35;4.58;;;;;;;26.62;100.00;98609.64;1827219;78;21014;-69
2021/06/26 05:15:29;;;;;;;15.18;4.37;;;;;;;26.73;100.00;98612.83;1827553;78;21492;-69
2021/06/26 05:17:57;;;;;;;12.20;4.83;;;;;;;26.82;100.00;98613.44;1827123;78;21991;-68
2021/06/26 05:20:26;;;;;;;8.65;3.77;;;;;;;26.91;100.00;98615.89;1826884;78;20914;-69
2021/06/26 05:22:55;;;;;;;12.98;4.40;;;;;;;26.99;100.00;98620.25;1827004;78;20867;-68
2021/06/26 05:25:25;;;;;;;10.60;4.50;;;;;;;27.06;100.00;98621.95;1826989;78;20926;-69
2021/06/26 05:27:54;;;;;;;10.88;4.42;;;;;;;27.11;100.00;98626.02;1827006;78;21481;-69
2021/06/26 05:30:24;;;;;;;12.05;4.80;;;;;;;27.17;100.00;98623.29;1827245;78;21073;-69
2021/06/26 05:32:52;;;;;;;11.95;4.30;;;;;;;27.20;100.00;98621.19;1827165;78;20879;-69
2021/06/26 05:35:21;;;;;;;11.53;4.03;;;;;;;27.24;100.00;98620.44;1827045;78;20918;-68
2021/06/26 05:37:51;;;;;;;12.33;4.42;;;;;;;27.28;100.00;98617.35;1827390;78;21357;-69
2021/06/26 05:40:19;;;;;;;13.18;4.42;;;;;;;27.33;100.00;98614.27;1826877;78;21464;-68
2021/06/26 05:42:48;;;;;;;11.30;3.90;;;;;;;27.36;100.00;98616.72;1827706;78;21108;-69
2021/06/26 05:45:15;;;;;;;11.35;4.17;;;;;;;27.39;100.00;98614.24;1826588;78;20835;-68
2021/06/26 05:47:44;;;;;;;12.35;4.53;;;;;;;27.43;100.00;98604.88;1840775;76;21426;-70
2021/06/26 05:50:12;;;;;;;17.48;4.70;;;;;;;27.47;100.00;98598.24;1831697;77;20958;-69
2021/06/26 05:52:55;;;;;;;15.43;5.00;;;;;;;27.52;100.00;98611.77;1827247;78;20858;-68
2021/06/26 05:55:24;;;;;;;12.33;4.53;;;;;;;27.55;100.00;98606.09;1826721;78;21130;-69
2021/06/26 05:57:54;;;;;;;13.85;4.40;;;;;;;27.58;100.00;98603.12;1827330;78;20987;-71
2021/06/26 06:00:23;;;;;;;11.95;4.55;;;;;;;27.60;100.00;98606.56;1827699;78;20886;-72
2021/06/26 06:02:52;;;;;;;14.40;5.42;;;;;;;27.64;100.00;98603.63;1827792;78;21469;-71
2021/06/26 06:05:20;;;;;;;9.45;4.55;;;;;;;27.67;100.00;98599.30;1827943;78;20930;-71
2021/06/26 06:07:48;;;;;;;17.60;5.12;;;;;;;27.73;100.00;98600.13;1827777;78;21551;-72
2021/06/26 06:10:17;;;;;;;9.55;4.70;;;;;;;27.79;100.00;98601.82;1827915;78;20863;-69
2021/06/26 06:12:45;;;;;;;13.75;5.17;;;;;;;27.87;100.00;98595.25;1828306;77;20890;-73
2021/06/26 06:15:16;;;;;;;11.97;4.42;;;;;;;27.99;100.00;98596.57;1828034;78;20914;-70
2021/06/26 06:17:44;;;;;;;15.15;4.87;;;;;;;28.09;100.00;98594.28;1828298;78;20835;-70
2021/06/26 06:20:13;;;;;;;12.55;4.30;;;;;;;28.18;100.00;98593.48;1827925;78;21505;-71
2021/06/26 06:22:41;;;;;;;28.85;4.83;;;;;;;28.30;100.00;98589.38;1827824;78;20919;-71
2021/06/26 06:25:12;;;;;;;24.77;5.83;;;;;;;28.40;100.00;98592.53;1827754;78;21001;-72
2021/06/26 06:27:42;;;;;;;20.25;5.35;;;;;;;28.49;100.00;98590.86;1828194;78;20993;-71
2021/06/26 06:30:13;;;;;;;7.72;4.28;;;;;;;28.60;100.00;98593.97;1828294;78;21127;-72
2021/06/26 06:32:41;;;;;;;14.27;4.50;;;;;;;28.69;100.00;98594.02;1828222;78;21133;-72
2021/06/26 06:35:09;;;;;;;14.70;4.60;;;;;;;28.78;100.00;98599.11;1827696;78;20915;-72
2021/06/26 06:37:38;;;;;;;9.13;4.03;;;;;;;28.88;100.00;98604.64;1827595;78;21638;-72
2021/06/26 06:40:08;;;;;;;12.47;4.70;;;;;;;28.97;100.00;98601.09;1827755;78;21376;-72
2021/06/26 06:42:37;;;;;;;11.75;4.67;;;;;;;29.07;100.00;98597.41;1828294;78;20883;-71
2021/06/26 06:45:07;;;;;;;13.38;4.42;;;;;;;29.14;100.00;98595.85;1828158;78;21814;-72
2021/06/26 06:47:35;;;;;;;12.35;4.67;;;;;;;29.21;100.00;98593.43;1828191;78;20859;-72
2021/06/26 06:50:06;;;;;;;9.75;3.98;;;;;;;29.28;100.00;98586.94;1827943;78;20874;-72
2021/06/26 06:52:35;;;;;;;10.43;4.53;;;;;;;29.33;100.00;98580.11;1828140;78;21310;-72
2021/06/26 06:55:06;;;;;;;12.50;4.58;;;;;;;29.41;100.00;98573.97;1810955;78;21408;-72
2021/06/26 06:57:34;;;;;;;11.53;4.78;;;;;;;29.47;100.00;98573.94;1803790;79;21159;-72
2021/06/26 07:00:02;;;;;;;8.40;3.90;;;;;;;29.54;100.00;98573.72;1803717;79;20937;-71
2021/06/26 07:02:32;;;;;;;12.82;4.00;;;;;;;29.60;100.00;98570.42;1803754;78;20969;-72
2021/06/26 07:05:04;;;;;;;17.45;4.33;;;;;;;29.67;100.00;98567.49;1803468;79;20914;-72
2021/06/26 07:07:32;;;;;;;10.72;4.47;;;;;;;29.74;100.00;98570.85;1803845;79;20842;-71
2021/06/26 07:10:00;;;;;;;14.55;4.78;;;;;;;29.83;100.00;98571.02;1803686;78;21233;-72
2021/06/26 07:12:30;;;;;;;10.10;4.00;;;;;;;29.92;100.00;98572.36;1803850;79;20931;-72
2021/06/26 07:14:58;;;;;;;11.48;4.55;;;;;;;30.02;100.00;98571.88;1803723;78;21511;-71
2021/06/26 07:17:26;;;;;;;11.55;4.83;;;;;;;30.11;100.00;98565.20;1803559;78;21406;-77
2021/06/26 07:19:58;;;;;;;11.65;4.28;;;;;;;30.17;100.00;98556.45;1803480;78;20893;-76
2021/06/26 07:22:25;;;;;;;14.93;4.17;;;;;;;30.23;100.00;98569.47;1803357;79;21076;-78
2021/06/26 07:24:53;;;;;;;13.22;3.40;;;;;;;30.30;100.00;98571.98;1803231;79;21414;-77
2021/06/26 07:27:21;;;;;;;13.25;4.50;;;;;;;30.40;100.00;98571.45;1803788;79;20958;-77
2021/06/26 07:29:49;;;;;;;14.43;4.10;;;;;;;30.47;100.00;98566.27;1803942;78;20929;-77
2021/06/26 07:32:17;;;;;;;15.03;4.65;;;;;;;30.56;100.00;98557.20;1803699;79;20866;-75
2021/06/26 07:34:45;;;;;;;9.95;3.65;;;;;;;30.65;100.00;98550.38;1803500;78;21145;-76
2021/06/26 07:37:12;;;;;;;9.58;4.10;;;;;;;30.75;100.00;98550.37;1803540;79;20913;-76
2021/06/26 07:39:40;;;;;;;6.78;3.83;;;;;;;30.84;100.00;98549.96;1803018;78;21496;-70
2021/06/26 07:42:09;;;;;;;11.43;4.30;;;;;;;30.92;100.00;98545.97;1821671;78;21068;-71
2021/06/26 07:44:37;;;;;;;13.25;4.60;;;;;;;31.00;100.00;98551.52;1803134;78;20949;-71
2021/06/26 07:47:04;;;;;;;8.93;4.20;;;;;;;31.09;100.00;98547.02;1802335;79;22030;-64
2021/06/26 07:49:34;;;;;;;15.50;4.10;;;;;;;31.15;100.00;98545.92;1800446;79;21554;-65
2021/06/26 07:52:02;;;;;;;8.75;4.17;;;;;;;31.23;100.00;98539.23;1801914;78;20925;-65
2021/06/26 07:54:30;;;;;;;15.80;3.87;;;;;;;31.30;100.00;98540.83;1803712;78;20909;-65
2021/06/26 07:56:58;;;;;;;8.03;3.55;;;;;;;31.39;100.00;98541.77;1815036;78;20937;-66
2021/06/26 07:59:27;;;;;;;12.50;4.00;;;;;;;31.46;100.00;98534.67;1815338;79;21197;-66
2021/06/26 08:01:56;;;;;;;13.65;3.98;;;;;;;31.55;100.00;98540.04;1815737;79;20881;-66
2021/06/26 08:04:24;;;;;;;12.60;3.70;;;;;;;31.63;100.00;98540.11;1816118;79;20984;-66
2021/06/26 08:06:55;;;;;;;12.35;4.05;;;;;;;31.71;100.00;98544.84;1816182;79;21424;-65
2021/06/26 08:09:25;;;;;;;14.43;4.42;;;;;;;31.80;100.00;98541.16;1816205;79;21438;-67
2021/06/26 08:11:57;;;;;;;10.90;3.80;;;;;;;31.91;100.00;98535.97;1815895;78;20900;-66
2021/06/26 08:14:26;;;;;;;10.32;3.83;;;;;;;32.02;100.00;98536.21;1816623;78;21383;-67
2021/06/26 08:16:55;;;;;;;10.80;4.12;;;;;;;32.08;100.00;98529.60;1817179;78;20931;-66
2021/06/26 08:19:25;;;;;;;11.08;4.37;;;;;;;32.18;100.00;98534.48;1816203;79;20928;-67
2021/06/26 08:21:53;;;;;;;14.90;4.55;;;;;;;32.26;100.00;98530.11;1816182;78;20968;-68
2021/06/26 08:24:22;;;;;;;14.05;4.75;;;;;;;32.33;100.00;98527.94;1815902;79;21216;-68
2021/06/26 08:26:50;;;;;;;8.40;3.92;;;;;;;32.42;100.00;98524.23;1815971;78;21034;-68
2021/06/26 08:29:18;;;;;;;13.05;3.92;;;;;;;32.51;100.00;98526.50;1815169;78;21044;-67
2021/06/26 08:31:45;;;;;;;11.00;3.90;;;;;;;32.58;100.00;98526.19;1816045;78;20845;-68
2021/06/26 08:34:14;;;;;;;11.95;3.75;;;;;;;32.63;100.00;98519.72;1816234;79;20833;-67
2021/06/26 08:36:42;;;;;;;9.13;3.70;;;;;;;32.68;100.00;98519.27;1815927;78;21796;-66
2021/06/26 08:39:10;;;;;;;13.13;3.70;;;;;;;32.72;100.00;98522.87;1835271;76;21467;-66
2021/06/26 08:41:45;;;;;;;7.15;3.87;;;;;;;32.75;100.00;98525.78;1815797;78;20909;-66
2021/06/26 08:44:12;;;;;;;8.85;3.58;;;;;;;32.81;100.00;98530.61;1815097;78;21011;-68
2021/06/26 08:46:46;;;;;;;9.23;3.87;;;;;;;32.84;100.00;98525.67;1815855;78;20959;-68
2021/06/26 08:49:15;;;;;;;11.30;3.72;;;;;;;32.89;100.00;98529.78;1816221;79;21135;-68
2021/06/26 08:51:43;;;;;;;9.88;4.10;;;;;;;32.94;100.00;98528.27;1816362;78;20901;-69
2021/06/26 08:54:16;;;;;;;14.45;3.75;;;;;;;33.02;100.00;98526.06;1815453;78;21537;-68
2021/06/26 08:56:47;;;;;;;9.43;3.90;;;;;;;33.11;100.00;98527.80;1802796;78;20887;-68
2021/06/26 08:59:16;;;;;;;13.83;3.83;;;;;;;33.18;100.00;98528.36;1803093;79;21377;-68
2021/06/26 09:01:44;;;;;;;12.58;4.10;;;;;;;33.28;100.00;98534.18;1802841;79;21135;-68
2021/06/26 09:04:17;;;;;;;6.22;3.62;;;;;;;33.37;100.00;98525.00;1801631;78;20878;-68
2021/06/26 09:06:57;;;;;;;11.08;3.90;;;;;;;33.47;100.00;98525.18;1802646;78;20954;-67
2021/06/26 09:09:36;;;;;;;15.83;3.95;;;;;;;33.58;100.00;98528.09;1802968;78;20957;-69
2021/06/26 09:12:11;;;;;;;11.73;3.65;;;;;;;33.66;100.00;98525.39;1776713;79;20917;-69
2021/06/26 09:14:40;;;;;;;11.50;3.70;;;;;;;33.76;100.00;98519.75;1802492;78;21132;-68
2021/06/26 09:17:08;;;;;;;9.30;4.20;;;;;;;33.87;100.00;98525.41;1802281;79;20965;-67
2021/06/26 09:19:38;;;;;;;20.00;4.15;;;;;;;33.93;100.00;98513.27;1822079;77;20902;-67
2021/06/26 09:22:12;;;;;;;23.40;4.37;;;;;;;34.01;100.00;98520.09;1802315;79;20913;-67
2021/06/26 09:24:45;;;;;;;13.58;3.70;;;;;;;34.09;100.00;98515.15;1836163;76;20954;-68
2021/06/26 09:27:15;;;;;;;8.43;3.60;;;;;;;34.18;100.00;98511.88;1839195;76;21471;-68
2021/06/26 09:29:49;;;;;;;12.98;3.40;;;;;;;34.27;100.00;98513.57;1844185;76;20977;-68
2021/06/26 09:32:24;;;;;;;19.40;3.62;;;;;;;34.34;100.00;98511.88;1845008;76;21040;-67
2021/06/26 09:34:52;;;;;;;15.72;3.47;;;;;;;34.41;100.00;98513.73;1842179;76;21084;-68
2021/06/26 09:37:29;;;;;;;8.20;3.20;;;;;;;34.49;99.53;98505.14;1844454;76;21080;-67
2021/06/26 09:39:59;;;;;;;13.70;4.00;;;;;;;34.55;97.48;98509.95;1841361;76;21137;-67
2021/06/26 09:42:37;;;;;;;12.75;3.85;;;;;;;34.60;97.10;98502.91;1843530;76;21022;-67
2021/06/26 09:45:12;;;;;;;11.48;3.25;;;;;;;34.66;94.25;98504.94;1843820;76;21413;-68
2021/06/26 09:47:46;;;;;;;12.85;3.27;;;;;;;34.73;93.32;98502.33;1841987;76;20973;-68
2021/06/26 09:50:24;;;;;;;10.70;3.27;;;;;;;34.81;93.14;98509.14;1838770;76;20965;-68
2021/06/26 09:53:03;;;;;;;9.78;3.20;;;;;;;34.89;95.71;98509.65;1839490;76;21060;-68
2021/06/26 09:55:37;;;;;;;8.15;3.00;;;;;;;34.96;91.06;98511.49;1840879;76;20938;-67
2021/06/26 09:58:15;;;;;;;6.22;3.25;;;;;;;35.06;90.91;98509.92;1849789;77;20882;-68
2021/06/26 10:00:49;;;;;;;13.80;4.10;;;;;;;35.15;93.26;98512.95;1849251;77;21522;-68
2021/06/26 10:03:19;;;;;;;12.55;3.42;;;;;;;35.19;90.02;98512.92;1849341;76;21526;-68
2021/06/26 10:05:47;;;;;;;19.50;4.25;;;;;;;35.25;91.88;98509.97;1849273;76;21572;-68
2021/06/26 10:08:16;;;;;;;9.85;3.83;;;;;;;35.31;100.00;98505.13;1848358;77;20944;-70
2021/06/26 10:10:46;;;;;;;8.53;3.98;;;;;;;35.24;94.92;98506.38;1848926;77;20885;-70
2021/06/26 10:13:14;;;;;;;11.80;4.42;;;;;;;35.29;96.42;98504.46;1848626;76;20925;-70
2021/06/26 10:15:44;;;;;;;7.85;4.28;;;;;;;35.37;95.80;98506.33;1849148;76;21411;-70
2021/06/26 10:18:12;;;;;;;12.85;4.08;;;;;;;35.43;89.44;98500.96;1849349;77;21940;-70
2021/06/26 10:20:41;;;;;;;11.45;4.45;;;;;;;35.51;89.37;98498.70;1848939;76;20833;-70
2021/06/26 10:23:09;;;;;;;12.15;4.47;;;;;;;35.60;89.28;98492.97;1849011;76;20923;-69
2021/06/26 10:25:39;;;;;;;12.80;4.70;;;;;;;35.70;88.56;98494.08;1847206;77;21609;-70
2021/06/26 10:28:13;;;;;;;9.75;3.30;;;;;;;35.78;88.24;98483.55;1848200;76;21001;-70
2021/06/26 10:30:42;;;;;;;31.48;3.65;;;;;;;35.86;87.46;98488.47;1848397;77;21177;-70
2021/06/26 10:33:11;;;;;;;10.20;3.60;;;;;;;35.91;83.45;98470.08;1848567;77;20933;-70
2021/06/26 10:35:52;;;;;;;11.30;3.40;;;;;;;35.94;82.34;98473.81;1849172;76;20920;-69
2021/06/26 10:38:23;;;;;;;9.15;2.87;;;;;;;35.99;82.73;98474.14;1813519;77;20917;-68
2021/06/26 10:40:56;;;;;;;16.93;3.37;;;;;;;36.07;84.39;98484.19;1847322;76;21003;-69
2021/06/26 10:43:30;;;;;;;16.10;3.00;;;;;;;36.15;84.72;98485.47;1848279;76;21045;-68
2021/06/26 10:46:12;;;;;;;16.42;3.00;;;;;;;36.22;83.65;98472.16;1848431;77;21522;-68
2021/06/26 10:48:44;;;;;;;27.35;3.75;;;;;;;36.28;82.81;98478.27;1848941;76;32940;-72
2021/06/26 10:51:12;;;;;;;17.20;3.07;;;;;;;36.34;83.79;98477.22;1847567;76;21331;-70
2021/06/26 10:53:41;;;;;;;13.18;3.02;;;;;;;36.36;83.88;98474.61;1849532;76;21104;-69
2021/06/26 10:56:15;;;;;;;16.17;3.30;;;;;;;36.42;83.31;98471.63;1856074;76;21130;-69
2021/06/26 10:58:45;;;;;;;8.15;3.17;;;;;;;36.46;82.45;98464.74;1859853;76;21438;-71
2021/06/26 11:01:22;;;;;;;10.58;2.90;;;;;;;36.51;77.54;98465.02;1859439;77;21520;-73
2021/06/26 11:03:52;;;;;;;8.33;2.83;;;;;;;36.54;77.95;98464.11;1856820;76;20986;-73
2021/06/26 11:06:26;;;;;;;7.67;2.92;;;;;;;36.55;73.88;98462.22;1859572;77;20945;-72
2021/06/26 11:09:12;;;;;;;9.85;3.02;;;;;;;36.58;71.65;98468.70;1859102;77;21817;-73
2021/06/26 11:11:45;;;;;;;6.05;2.45;;;;;;;36.58;70.42;98464.06;1858808;77;20969;-74
2021/06/26 11:14:27;;;;;;;8.95;2.70;;;;;;;36.59;67.82;98464.91;1859603;76;20915;-73
2021/06/26 11:16:58;;;;;;;21.30;3.47;;;;;;;36.65;68.24;98469.64;1861417;76;21346;-74
2021/06/26 11:19:31;;;;;;;6.97;2.55;;;;;;;36.71;70.24;98470.25;1861007;76;21394;-73
2021/06/26 11:22:01;;;;;;;16.20;3.20;;;;;;;36.74;69.62;98464.89;1861193;76;21713;-73
2021/06/26 11:24:42;;;;;;;9.28;2.52;;;;;;;36.79;66.05;98461.92;1860616;76;20949;-74
2021/06/26 11:27:15;;;;;;;9.13;2.87;;;;;;;36.85;68.12;98459.77;1859627;76;20918;-73
2021/06/26 11:29:45;;;;;;;7.08;2.47;;;;;;;36.88;65.20;98455.27;1859555;77;20970;-75
2021/06/26 11:32:24;;;;;;;10.90;3.12;;;;;;;36.93;66.31;98456.61;1860179;76;25443;-75
2021/06/26 11:35:06;;;;;;;7.15;2.40;;;;;;;36.97;71.83;98451.05;1859490;77;21519;-69